Mare Island — WDC2198 — position and weather

sailwx.info

Track history (hours):
 
Tides and Currents Weather Stations Pressure Air Temp Water Temp Dewpoint Dewpoint Depression Visibility Wind Speed Wind Dir Waves Ship Positions

Mare Island

Owner: San Francisco Bay Area Water Emergency Transportation Authority, Vallejo, CA. More information available from US FCC via Universal Licensing System and Coast Guard Vessel Documentation Center.

Last reported at 2017-Dec-18 18:07 UTC. Time now 2017-Dec-18 20:44 UTC.
Position N 38°06' W 122°16'.

Length 42 m; draft 3 m.

Type: Passenger vessel. MMSI: 366989380.

Date/timePositionNaut miles runAvg speedWind from/ knotsBaromVisibWave heightAir tempDewpointWater temp
2017-Dec-18 18:07N 38°06' W 122°16'0 2.1
2017-Dec-18 17:59N 38°06' W 122°16'612.8
2017-Dec-18 17:30N 38°02' W 122°21'1428.0
2017-Dec-18 17:00N 37°48' W 122°24'4 7.6
2017-Dec-18 16:30N 37°51' W 122°25'1428.6
2017-Dec-18 16:00N 38°04' W 122°16'2 3.9
2017-Dec-18 15:29N 38°06' W 122°16'919.5
2017-Dec-18 15:00N 37°60' W 122°25'1223.7
2017-Dec-18 14:31N 37°48' W 122°24'1121.8
2017-Dec-18 14:00N 37°59' W 122°26'1115.6
2017-Dec-18 13:19N 38°06' W 122°16'0 0.0
2017-Dec-18 01:47N 38°06' W 122°16'1 4.1
2017-Dec-18 01:30N 38°05' W 122°15'1325.3
2017-Dec-18 01:00N 37°56' W 122°26'816.1
2017-Dec-18 00:30N 37°48' W 122°24'1121.3
2017-Dec-18 00:01N 37°58' W 122°26'1120.3
2017-Dec-17 23:27N 38°06' W 122°16'0 0.0
2017-Dec-17 21:39N 38°06' W 122°16'1 8.0
2017-Dec-17 21:29N 38°05' W 122°15'1327.8
2017-Dec-17 21:01N 37°55' W 122°25'713.9
2017-Dec-17 20:30N 37°48' W 122°24'1325.2
2017-Dec-17 20:00N 38°00' W 122°24'9 0.5
2017-Dec-17 01:39N 38°06' W 122°16'1 9.4
2017-Dec-17 01:30N 38°05' W 122°15'1326.4
2017-Dec-17 01:01N 37°55' W 122°25'714.1
2017-Dec-17 00:31N 37°48' W 122°24'1121.7
2017-Dec-17 00:01N 37°59' W 122°26'11 5.0
2017-Dec-16 21:51N 38°06' W 122°16'2 4.5
2017-Dec-16 21:30N 38°05' W 122°15'1326.9
2017-Dec-16 21:01N 37°54' W 122°25'713.4
2017-Dec-16 20:30N 37°48' W 122°24'1223.2
2017-Dec-16 20:01N 37°59' W 122°25'10 0.6
2017-Dec-16 04:30N 38°06' W 122°16'2 3.2
2017-Dec-16 04:01N 38°05' W 122°15'1427.1
2017-Dec-16 03:31N 37°54' W 122°25'510.2
2017-Dec-16 03:01N 37°49' W 122°25'816.2
2017-Dec-16 02:30N 37°57' W 122°27'1223.6
2017-Dec-16 01:59N 38°05' W 122°15'1 3.0
2017-Dec-16 01:30N 38°06' W 122°16'816.1
2017-Dec-16 01:01N 38°01' W 122°23'1325.6
2017-Dec-16 00:30N 37°48' W 122°24'0 0.8
2017-Dec-16 00:01N 37°48' W 122°23'1529.5
2017-Dec-15 23:30N 38°03' W 122°19'4 0.8
2017-Dec-15 17:54N 38°06' W 122°16'615.8
2017-Dec-15 17:31N 38°01' W 122°21'1427.6
2017-Dec-15 17:00N 37°48' W 122°24'510.4
2017-Dec-15 16:31N 37°53' W 122°25'1427.9
2017-Dec-15 15:59N 38°05' W 122°15'2 2.8
2017-Dec-15 15:26N 38°06' W 122°16'819.2
2017-Dec-15 15:00N 38°01' W 122°23'1325.4
2017-Dec-15 14:31N 37°48' W 122°24'1121.6
2017-Dec-15 14:01N 37°59' W 122°26'10 1.1
2017-Dec-15 04:01N 38°05' W 122°15'0 9.8
2017-Dec-15 03:58N 38°04' W 122°15'1510.3
2017-Dec-15 02:30N 37°51' W 122°25'10 6.9
2017-Dec-15 01:00N 38°01' W 122°22'1427.4
2017-Dec-15 00:31N 37°48' W 122°24'19 3.0
2017-Dec-14 18:04N 38°06' W 122°16'0 2.8
2017-Dec-14 18:00N 38°06' W 122°16'510.6
2017-Dec-14 17:31N 38°02' W 122°20'1428.7
2017-Dec-14 17:00N 37°48' W 122°24'5 9.8
2017-Dec-14 16:31N 37°52' W 122°25'1428.4
2017-Dec-14 16:00N 38°04' W 122°15'7 7.5
2017-Dec-14 15:00N 38°00' W 122°23'1325.3
2017-Dec-14 14:31N 37°48' W 122°24'1223.2
2017-Dec-14 14:00N 37°60' W 122°25'914.6
2017-Dec-14 13:21N 38°06' W 122°16'0 0.0
2017-Dec-14 04:27N 38°06' W 122°16'2 3.6
2017-Dec-14 04:00N 38°05' W 122°15'1427.6
2017-Dec-14 03:30N 37°54' W 122°25'510.4
2017-Dec-14 03:01N 37°49' W 122°24'4 8.7
2017-Dec-14 02:31N 37°53' W 122°26'1428.5
2017-Dec-14 02:00N 38°04' W 122°15'2 2.6
2017-Dec-14 01:21N 38°06' W 122°16'3 8.5
2017-Dec-14 01:00N 38°03' W 122°17'1427.7
2017-Dec-14 00:31N 37°51' W 122°24'2 4.4
2017-Dec-14 00:01N 37°48' W 122°23'1529.9
2017-Dec-13 23:30N 38°03' W 122°19'4 0.9
2017-Dec-13 19:12N 38°06' W 122°16'0 0.1
2017-Dec-13 18:03N 38°06' W 122°16'1 4.5
2017-Dec-13 17:49N 38°05' W 122°15'721.1
2017-Dec-13 17:30N 38°01' W 122°22'1427.1
2017-Dec-13 17:00N 37°48' W 122°24'510.3
2017-Dec-13 16:31N 37°53' W 122°26'1428.6
2017-Dec-13 16:00N 38°04' W 122°15'2 3.4
2017-Dec-13 15:26N 38°06' W 122°16'819.1
2017-Dec-13 15:01N 38°00' W 122°23'1325.1
2017-Dec-13 14:30N 37°48' W 122°24'1224.9
2017-Dec-13 14:00N 38°00' W 122°24'9 0.9
2017-Dec-13 04:33N 38°06' W 122°16'0 0.9
2017-Dec-13 04:20N 38°06' W 122°16'2 4.7
2017-Dec-13 04:00N 38°05' W 122°15'1427.7
2017-Dec-13 03:31N 37°53' W 122°25'5 9.2
2017-Dec-13 03:00N 37°49' W 122°24'4 8.8
2017-Dec-13 02:31N 37°53' W 122°26'1428.6
2017-Dec-13 02:00N 38°05' W 122°15'1 0.9
2017-Dec-13 01:09N 38°05' W 122°15'1 8.6
2017-Dec-13 00:59N 38°04' W 122°15'1428.3
2017-Dec-13 00:30N 37°52' W 122°24'4 8.9
2017-Dec-13 00:01N 37°48' W 122°23'1529.0
2017-Dec-12 23:30N 38°02' W 122°20'5 0.9
2017-Dec-12 18:08N 38°06' W 122°16'0 1.6
2017-Dec-12 17:59N 38°06' W 122°16'816.9
2017-Dec-12 17:31N 38°01' W 122°23'1325.6
2017-Dec-12 17:00N 37°48' W 122°24'510.1
2017-Dec-12 16:31N 37°53' W 122°26'1428.4
2017-Dec-12 16:00N 38°04' W 122°15'1 1.8
2017-Dec-12 15:22N 38°05' W 122°15'1026.8
2017-Dec-12 15:00N 37°59' W 122°25'1223.2
2017-Dec-12 14:31N 37°48' W 122°24'1224.7
2017-Dec-12 14:00N 38°00' W 122°24'912.1
2017-Dec-12 13:17N 38°06' W 122°16'0 0.0
2017-Dec-12 04:26N 38°06' W 122°16'1 3.1
2017-Dec-12 04:00N 38°05' W 122°15'1327.0
2017-Dec-12 03:31N 37°54' W 122°25'510.9
2017-Dec-12 03:01N 37°49' W 122°24'3 6.8
2017-Dec-12 02:31N 37°52' W 122°25'1529.0
2017-Dec-12 02:00N 38°04' W 122°15'2 2.6
2017-Dec-12 01:22N 38°06' W 122°16'412.2
2017-Dec-12 01:01N 38°03' W 122°19'1428.6
2017-Dec-12 00:30N 37°49' W 122°23'0 0.7
2017-Dec-12 00:01N 37°48' W 122°23'1530.4
2017-Dec-11 23:30N 38°03' W 122°18'4 1.2
2017-Dec-11 20:24N 38°06' W 122°16'512.2
2017-Dec-11 20:00N 38°02' W 122°20'1428.7
2017-Dec-11 19:30N 37°49' W 122°25'1 2.4
2017-Dec-11 19:01N 37°48' W 122°24'1121.1
2017-Dec-11 18:30N 37°58' W 122°26'1123.0
2017-Dec-11 18:01N 38°06' W 122°16'0 0.0
2017-Dec-11 17:30N 38°06' W 122°16'1 1.6
2017-Dec-11 17:01N 38°05' W 122°15'1326.5
2017-Dec-11 16:30N 37°55' W 122°25'714.2
2017-Dec-11 16:00N 37°48' W 122°24'1224.1
2017-Dec-11 15:30N 37°60' W 122°25'918.5
2017-Dec-11 15:00N 38°06' W 122°16'0 0.5
2017-Dec-11 14:28N 38°06' W 122°16'0 0.0
2017-Dec-11 11:22N 38°06' W 122°16'0 0.0
2017-Dec-11 10:46N 38°06' W 122°16'0 0.0
2017-Dec-11 10:04N 38°06' W 122°16'0 0.0
2017-Dec-11 09:58N 38°06' W 122°16'0 0.0
2017-Dec-11 09:28N 38°06' W 122°16'0 0.0
2017-Dec-11 07:04N 38°06' W 122°16'0 0.0
2017-Dec-11 06:52N 38°06' W 122°16'0 0.0
2017-Dec-11 01:56N 38°06' W 122°16'1 3.3
2017-Dec-11 01:30N 38°05' W 122°15'1428.3
2017-Dec-11 01:01N 37°54' W 122°25'612.0
2017-Dec-11 00:30N 37°48' W 122°24'1325.8
2017-Dec-11 00:00N 38°01' W 122°24'8 3.5
2017-Dec-10 21:41N 38°06' W 122°16'2 8.3
2017-Dec-10 21:29N 38°04' W 122°15'1430.1
2017-Dec-10 21:01N 37°53' W 122°25'5 9.9
2017-Dec-10 20:30N 37°48' W 122°24'1325.2
2017-Dec-10 20:01N 38°00' W 122°24'9 9.7
2017-Dec-10 19:08N 38°06' W 122°16'0 0.2
2017-Dec-10 17:31N 38°06' W 122°16'0 0.0
2017-Dec-10 17:01N 38°06' W 122°16'0 0.0
2017-Dec-10 16:55N 38°06' W 122°16'0 0.0
2017-Dec-10 16:25N 38°06' W 122°16'0 0.0
2017-Dec-10 15:55N 38°06' W 122°16'0 0.0
2017-Dec-10 15:25N 38°06' W 122°16'0 0.0
2017-Dec-10 08:31N 38°06' W 122°16'0 0.0
2017-Dec-10 01:58N 38°06' W 122°16'2 3.7
2017-Dec-10 01:30N 38°05' W 122°15'1427.8
2017-Dec-10 01:01N 37°54' W 122°25'611.8
2017-Dec-10 00:30N 37°48' W 122°24'1223.7
2017-Dec-10 00:01N 37°60' W 122°25'10 4.2
2017-Dec-09 21:42N 38°06' W 122°16'2 8.4
2017-Dec-09 21:28N 38°04' W 122°15'1430.5
2017-Dec-09 21:01N 37°53' W 122°25'510.5
2017-Dec-09 20:31N 37°48' W 122°24'1224.0
2017-Dec-09 20:00N 37°60' W 122°25'1010.6
2017-Dec-09 19:06N 38°06' W 122°16'0 0.0
2017-Dec-09 04:30N 38°06' W 122°16'1 3.0
2017-Dec-09 04:00N 38°05' W 122°15'1326.2
2017-Dec-09 03:31N 37°55' W 122°25'713.1
2017-Dec-09 03:01N 37°48' W 122°24'1 2.5
2017-Dec-09 02:31N 37°49' W 122°25'1631.1
2017-Dec-09 02:00N 38°03' W 122°17'3 5.0
2017-Dec-09 01:27N 38°06' W 122°16'715.3
2017-Dec-09 01:00N 38°01' W 122°22'1427.2
2017-Dec-09 00:30N 37°48' W 122°24'1 1.8
2017-Dec-09 00:00N 37°49' W 122°23'1529.4
2017-Dec-08 23:30N 38°03' W 122°18'4 6.8
2017-Dec-08 22:57N 38°06' W 122°16'0 0.1
2017-Dec-08 20:29N 38°06' W 122°16'4 9.5
2017-Dec-08 20:01N 38°02' W 122°19'1428.8
2017-Dec-08 19:30N 37°49' W 122°25'1 2.4
2017-Dec-08 19:00N 37°48' W 122°24'1020.3
2017-Dec-08 18:31N 37°58' W 122°26'  
Track history (hours):
 
Tides and Currents Weather Stations Pressure Air Temp Water Temp Dewpoint Dewpoint Depression Visibility Wind Speed Wind Dir Waves Ship Positions

Mare Island

Owner: San Francisco Bay Area Water Emergency Transportation Authority, Vallejo, CA. More information available from US FCC via Universal Licensing System and Coast Guard Vessel Documentation Center.

Last reported at 2017-Dec-18 18:07 UTC. Time now 2017-Dec-18 20:44 UTC.
Position N 38°06' W 122°16'.

Length 42 m; draft 3 m.

Type: Passenger vessel. MMSI: 366989380.

Date/timePositionNaut miles runAvg speedWind from/ knotsBaromVisibWave heightAir tempDewpointWater temp
2017-Dec-18 18:07N 38°06' W 122°16'0 2.1
2017-Dec-18 17:59N 38°06' W 122°16'612.8
2017-Dec-18 17:30N 38°02' W 122°21'1428.0
2017-Dec-18 17:00N 37°48' W 122°24'4 7.6
2017-Dec-18 16:30N 37°51' W 122°25'1428.6
2017-Dec-18 16:00N 38°04' W 122°16'2 3.9
2017-Dec-18 15:29N 38°06' W 122°16'919.5
2017-Dec-18 15:00N 37°60' W 122°25'1223.7
2017-Dec-18 14:31N 37°48' W 122°24'1121.8
2017-Dec-18 14:00N 37°59' W 122°26'1115.6
2017-Dec-18 13:19N 38°06' W 122°16'0 0.0
2017-Dec-18 01:47N 38°06' W 122°16'1 4.1
2017-Dec-18 01:30N 38°05' W 122°15'1325.3
2017-Dec-18 01:00N 37°56' W 122°26'816.1
2017-Dec-18 00:30N 37°48' W 122°24'1121.3
2017-Dec-18 00:01N 37°58' W 122°26'1120.3
2017-Dec-17 23:27N 38°06' W 122°16'0 0.0
2017-Dec-17 21:39N 38°06' W 122°16'1 8.0
2017-Dec-17 21:29N 38°05' W 122°15'1327.8
2017-Dec-17 21:01N 37°55' W 122°25'713.9
2017-Dec-17 20:30N 37°48' W 122°24'1325.2
2017-Dec-17 20:00N 38°00' W 122°24'9 0.5
2017-Dec-17 01:39N 38°06' W 122°16'1 9.4
2017-Dec-17 01:30N 38°05' W 122°15'1326.4
2017-Dec-17 01:01N 37°55' W 122°25'714.1
2017-Dec-17 00:31N 37°48' W 122°24'1121.7
2017-Dec-17 00:01N 37°59' W 122°26'11 5.0
2017-Dec-16 21:51N 38°06' W 122°16'2 4.5
2017-Dec-16 21:30N 38°05' W 122°15'1326.9
2017-Dec-16 21:01N 37°54' W 122°25'713.4
2017-Dec-16 20:30N 37°48' W 122°24'1223.2
2017-Dec-16 20:01N 37°59' W 122°25'10 0.6
2017-Dec-16 04:30N 38°06' W 122°16'2 3.2
2017-Dec-16 04:01N 38°05' W 122°15'1427.1
2017-Dec-16 03:31N 37°54' W 122°25'510.2
2017-Dec-16 03:01N 37°49' W 122°25'816.2
2017-Dec-16 02:30N 37°57' W 122°27'1223.6
2017-Dec-16 01:59N 38°05' W 122°15'1 3.0
2017-Dec-16 01:30N 38°06' W 122°16'816.1
2017-Dec-16 01:01N 38°01' W 122°23'1325.6
2017-Dec-16 00:30N 37°48' W 122°24'0 0.8
2017-Dec-16 00:01N 37°48' W 122°23'1529.5
2017-Dec-15 23:30N 38°03' W 122°19'4 0.8
2017-Dec-15 17:54N 38°06' W 122°16'615.8
2017-Dec-15 17:31N 38°01' W 122°21'1427.6
2017-Dec-15 17:00N 37°48' W 122°24'510.4
2017-Dec-15 16:31N 37°53' W 122°25'1427.9
2017-Dec-15 15:59N 38°05' W 122°15'2 2.8
2017-Dec-15 15:26N 38°06' W 122°16'819.2
2017-Dec-15 15:00N 38°01' W 122°23'1325.4
2017-Dec-15 14:31N 37°48' W 122°24'1121.6
2017-Dec-15 14:01N 37°59' W 122°26'10 1.1
2017-Dec-15 04:01N 38°05' W 122°15'0 9.8
2017-Dec-15 03:58N 38°04' W 122°15'1510.3
2017-Dec-15 02:30N 37°51' W 122°25'10 6.9
2017-Dec-15 01:00N 38°01' W 122°22'1427.4
2017-Dec-15 00:31N 37°48' W 122°24'19 3.0
2017-Dec-14 18:04N 38°06' W 122°16'0 2.8
2017-Dec-14 18:00N 38°06' W 122°16'510.6
2017-Dec-14 17:31N 38°02' W 122°20'1428.7
2017-Dec-14 17:00N 37°48' W 122°24'5 9.8
2017-Dec-14 16:31N 37°52' W 122°25'1428.4
2017-Dec-14 16:00N 38°04' W 122°15'7 7.5
2017-Dec-14 15:00N 38°00' W 122°23'1325.3
2017-Dec-14 14:31N 37°48' W 122°24'1223.2
2017-Dec-14 14:00N 37°60' W 122°25'914.6
2017-Dec-14 13:21N 38°06' W 122°16'0 0.0
2017-Dec-14 04:27N 38°06' W 122°16'2 3.6
2017-Dec-14 04:00N 38°05' W 122°15'1427.6
2017-Dec-14 03:30N 37°54' W 122°25'510.4
2017-Dec-14 03:01N 37°49' W 122°24'4 8.7
2017-Dec-14 02:31N 37°53' W 122°26'1428.5
2017-Dec-14 02:00N 38°04' W 122°15'2 2.6
2017-Dec-14 01:21N 38°06' W 122°16'3 8.5
2017-Dec-14 01:00N 38°03' W 122°17'1427.7
2017-Dec-14 00:31N 37°51' W 122°24'2 4.4
2017-Dec-14 00:01N 37°48' W 122°23'1529.9
2017-Dec-13 23:30N 38°03' W 122°19'4 0.9
2017-Dec-13 19:12N 38°06' W 122°16'0 0.1
2017-Dec-13 18:03N 38°06' W 122°16'1 4.5
2017-Dec-13 17:49N 38°05' W 122°15'721.1
2017-Dec-13 17:30N 38°01' W 122°22'1427.1
2017-Dec-13 17:00N 37°48' W 122°24'510.3
2017-Dec-13 16:31N 37°53' W 122°26'1428.6
2017-Dec-13 16:00N 38°04' W 122°15'2 3.4
2017-Dec-13 15:26N 38°06' W 122°16'819.1
2017-Dec-13 15:01N 38°00' W 122°23'1325.1
2017-Dec-13 14:30N 37°48' W 122°24'1224.9
2017-Dec-13 14:00N 38°00' W 122°24'9 0.9
2017-Dec-13 04:33N 38°06' W 122°16'0 0.9
2017-Dec-13 04:20N 38°06' W 122°16'2 4.7
2017-Dec-13 04:00N 38°05' W 122°15'1427.7
2017-Dec-13 03:31N 37°53' W 122°25'5 9.2
2017-Dec-13 03:00N 37°49' W 122°24'4 8.8
2017-Dec-13 02:31N 37°53' W 122°26'1428.6
2017-Dec-13 02:00N 38°05' W 122°15'1 0.9
2017-Dec-13 01:09N 38°05' W 122°15'1 8.6
2017-Dec-13 00:59N 38°04' W 122°15'1428.3
2017-Dec-13 00:30N 37°52' W 122°24'4 8.9
2017-Dec-13 00:01N 37°48' W 122°23'1529.0
2017-Dec-12 23:30N 38°02' W 122°20'5 0.9
2017-Dec-12 18:08N 38°06' W 122°16'0 1.6
2017-Dec-12 17:59N 38°06' W 122°16'816.9
2017-Dec-12 17:31N 38°01' W 122°23'1325.6
2017-Dec-12 17:00N 37°48' W 122°24'510.1
2017-Dec-12 16:31N 37°53' W 122°26'1428.4
2017-Dec-12 16:00N 38°04' W 122°15'1 1.8
2017-Dec-12 15:22N 38°05' W 122°15'1026.8
2017-Dec-12 15:00N 37°59' W 122°25'1223.2
2017-Dec-12 14:31N 37°48' W 122°24'1224.7
2017-Dec-12 14:00N 38°00' W 122°24'912.1
2017-Dec-12 13:17N 38°06' W 122°16'0 0.0
2017-Dec-12 04:26N 38°06' W 122°16'1 3.1
2017-Dec-12 04:00N 38°05' W 122°15'1327.0
2017-Dec-12 03:31N 37°54' W 122°25'510.9
2017-Dec-12 03:01N 37°49' W 122°24'3 6.8
2017-Dec-12 02:31N 37°52' W 122°25'1529.0
2017-Dec-12 02:00N 38°04' W 122°15'2 2.6
2017-Dec-12 01:22N 38°06' W 122°16'412.2
2017-Dec-12 01:01N 38°03' W 122°19'1428.6
2017-Dec-12 00:30N 37°49' W 122°23'0 0.7
2017-Dec-12 00:01N 37°48' W 122°23'1530.4
2017-Dec-11 23:30N 38°03' W 122°18'4 1.2
2017-Dec-11 20:24N 38°06' W 122°16'512.2
2017-Dec-11 20:00N 38°02' W 122°20'1428.7
2017-Dec-11 19:30N 37°49' W 122°25'1 2.4
2017-Dec-11 19:01N 37°48' W 122°24'1121.1
2017-Dec-11 18:30N 37°58' W 122°26'1123.0
2017-Dec-11 18:01N 38°06' W 122°16'0 0.0
2017-Dec-11 17:30N 38°06' W 122°16'1 1.6
2017-Dec-11 17:01N 38°05' W 122°15'1326.5
2017-Dec-11 16:30N 37°55' W 122°25'714.2
2017-Dec-11 16:00N 37°48' W 122°24'1224.1
2017-Dec-11 15:30N 37°60' W 122°25'918.5
2017-Dec-11 15:00N 38°06' W 122°16'0 0.5
2017-Dec-11 14:28N 38°06' W 122°16'0 0.0
2017-Dec-11 11:22N 38°06' W 122°16'0 0.0
2017-Dec-11 10:46N 38°06' W 122°16'0 0.0
2017-Dec-11 10:04N 38°06' W 122°16'0 0.0
2017-Dec-11 09:58N 38°06' W 122°16'0 0.0
2017-Dec-11 09:28N 38°06' W 122°16'0 0.0
2017-Dec-11 07:04N 38°06' W 122°16'0 0.0
2017-Dec-11 06:52N 38°06' W 122°16'0 0.0
2017-Dec-11 01:56N 38°06' W 122°16'1 3.3
2017-Dec-11 01:30N 38°05' W 122°15'1428.3
2017-Dec-11 01:01N 37°54' W 122°25'612.0
2017-Dec-11 00:30N 37°48' W 122°24'1325.8
2017-Dec-11 00:00N 38°01' W 122°24'8 3.5
2017-Dec-10 21:41N 38°06' W 122°16'2 8.3
2017-Dec-10 21:29N 38°04' W 122°15'1430.1
2017-Dec-10 21:01N 37°53' W 122°25'5 9.9
2017-Dec-10 20:30N 37°48' W 122°24'1325.2
2017-Dec-10 20:01N 38°00' W 122°24'9 9.7
2017-Dec-10 19:08N 38°06' W 122°16'0 0.2
2017-Dec-10 17:31N 38°06' W 122°16'0 0.0
2017-Dec-10 17:01N 38°06' W 122°16'0 0.0
2017-Dec-10 16:55N 38°06' W 122°16'0 0.0
2017-Dec-10 16:25N 38°06' W 122°16'0 0.0
2017-Dec-10 15:55N 38°06' W 122°16'0 0.0
2017-Dec-10 15:25N 38°06' W 122°16'0 0.0
2017-Dec-10 08:31N 38°06' W 122°16'0 0.0
2017-Dec-10 01:58N 38°06' W 122°16'2 3.7
2017-Dec-10 01:30N 38°05' W 122°15'1427.8
2017-Dec-10 01:01N 37°54' W 122°25'611.8
2017-Dec-10 00:30N 37°48' W 122°24'1223.7
2017-Dec-10 00:01N 37°60' W 122°25'10 4.2
2017-Dec-09 21:42N 38°06' W 122°16'2 8.4
2017-Dec-09 21:28N 38°04' W 122°15'1430.5
2017-Dec-09 21:01N 37°53' W 122°25'510.5
2017-Dec-09 20:31N 37°48' W 122°24'1224.0
2017-Dec-09 20:00N 37°60' W 122°25'1010.6
2017-Dec-09 19:06N 38°06' W 122°16'0 0.0
2017-Dec-09 04:30N 38°06' W 122°16'1 3.0
2017-Dec-09 04:00N 38°05' W 122°15'1326.2
2017-Dec-09 03:31N 37°55' W 122°25'713.1
2017-Dec-09 03:01N 37°48' W 122°24'1 2.5
2017-Dec-09 02:31N 37°49' W 122°25'1631.1
2017-Dec-09 02:00N 38°03' W 122°17'3 5.0
2017-Dec-09 01:27N 38°06' W 122°16'715.3
2017-Dec-09 01:00N 38°01' W 122°22'1427.2
2017-Dec-09 00:30N 37°48' W 122°24'1 1.8
2017-Dec-09 00:00N 37°49' W 122°23'1529.4
2017-Dec-08 23:30N 38°03' W 122°18'4 6.8
2017-Dec-08 22:57N 38°06' W 122°16'0 0.1
2017-Dec-08 20:29N 38°06' W 122°16'4 9.5
2017-Dec-08 20:01N 38°02' W 122°19'1428.8
2017-Dec-08 19:30N 37°49' W 122°25'1 2.4
2017-Dec-08 19:00N 37°48' W 122°24'1020.3
2017-Dec-08 18:31N 37°58' W 122°26'  

Dump ship's entire track history